PST,Max TemperatureF,Mean TemperatureF,Min TemperatureF,Max Dew PointF,MeanDew PointF,Min DewpointF,Max Humidity, Mean Humidity, Min Humidity, Max Sea Level PressureIn, Mean Sea Level PressureIn, Min Sea Level PressureIn, Max VisibilityMiles, Mean VisibilityMiles, Min VisibilityMiles, Max Wind SpeedMPH, Mean Wind SpeedMPH, Max Gust SpeedMPH,PrecipitationIn, CloudCover, Events, WindDirDegrees
2013-1-1,18,3,-12,8,-4,-12,90,79,67,30.74,30.64,30.51,,,,9,4,13,0.00,,,158
2013-1-2,12,0,-12,2,-6,-16,91,77,63,30.74,30.68,30.60,,,,9,3,12,0.00,,,91
2013-1-3,8,-1,-10,3,-2,-15,96,85,74,30.65,30.59,30.54,,,,10,2,12,0.00,,,139
2013-1-4,13,2,-10,4,-6,-14,91,79,66,30.72,30.64,30.57,,,,9,3,9,0.00,,,124
2013-1-5,15,2,-11,4,-2,-15,95,81,66,30.61,30.51,30.36,,,,9,2,10,0.00,,,68
2013-1-6,23,11,-1,10,4,-4,95,76,57,30.39,30.33,30.26,,,,10,2,12,0.00,,,130
2013-1-7,38,19,-1,29,16,-4,88,80,72,30.37,30.29,30.23,,,,29,11,36,0.01,,,168
2013-1-8,40,34,28,30,27,22,82,76,70,30.29,30.24,30.19,,,,28,17,33,0.00,,,144
2013-1-9,42,35,28,33,29,25,92,77,62,30.17,29.89,29.68,,,,25,13,35,0.16,,,166
2013-1-10,29,21,12,24,15,8,92,71,50,29.93,29.86,29.74,,,,21,11,25,0.05,,,265
2013-1-11,28,20,8,14,10,2,76,62,49,30.21,30.05,29.89,,,,17,10,28,0.00,,,286
2013-1-12,20,8,-5,9,0,-10,86,74,61,30.37,30.30,30.23,,,,15,7,18,0.00,,,150
2013-1-13,18,7,-4,8,4,-7,88,75,61,30.45,30.40,30.32,,,,10,4,12,0.00,,,153
2013-1-14,22,11,0,11,5,-4,87,74,61,30.55,30.50,30.47,,,,26,14,33,0.00,,,153
2013-1-15,31,21,11,18,10,5,76,68,60,30.76,30.68,30.56,,,,26,13,31,0.00,,,145
2013-1-16,31,18,5,16,9,2,88,71,53,30.78,30.72,30.56,,,,20,8,24,0.00,,,99
2013-1-17,16,8,-1,8,2,-4,95,81,67,30.84,30.75,30.69,,,,9,3,10,0.00,,,38
2013-1-18,25,10,-5,11,2,-7,91,73,55,30.72,30.65,30.56,,,,12,3,12,0.00,,,130
2013-1-19,28,13,-3,13,5,-3,91,71,50,30.69,30.63,30.58,,,,9,3,10,0.00,,,65
2013-1-20,28,12,-4,12,4,-7,95,73,50,30.70,30.64,30.58,,,,9,3,10,0.00,,,104
2013-1-21,33,16,-2,17,5,-5,95,73,50,30.62,30.53,30.43,,,,15,3,20,0.00,,,109
2013-1-22,28,12,-5,11,3,-8,87,69,50,30.49,30.42,30.36,,,,9,3,12,0.00,,,43
2013-1-23,26,15,3,20,9,0,87,73,59,30.35,30.29,30.22,,,,9,3,13,0.01,,,36
2013-1-24,44,35,25,35,30,22,92,81,70,30.30,30.26,30.22,,,,15,3,18,0.04,,,97
2013-1-25,47,40,33,37,35,31,100,83,65,30.26,30.12,29.98,,,,18,8,23,0.06,,,164
2013-1-26,51,38,24,38,32,23,100,81,61,29.99,29.91,29.84,,,,16,7,21,0.19,,,122
2013-1-27,34,25,15,26,20,12,100,81,61,30.08,30.03,29.94,,,,16,6,20,0.00,,,228
2013-1-28,34,26,18,28,23,14,92,78,64,30.10,30.05,30.02,,,,17,10,23,0.03,,,212
2013-1-29,41,36,31,31,28,26,92,78,64,30.31,30.18,30.00,,,,22,11,30,0.00,,,262
2013-1-30,51,44,37,35,32,28,82,69,56,30.36,30.32,30.27,,,,24,11,30,0.00,,,215
2013-1-31,52,41,29,36,32,27,89,67,44,30.36,30.31,30.26,,,,20,8,22,0.00,,,152